Wetterdaten: Woche 19.10.15 - 25.10.15 (KW43)
Datum Zeit Temp. A. Feuchte I. Feuchte A. Luftdruck Regen Wind Richtung Sonnenschein UV Solar Taupunkt Windchill Windben
20.10.2015 01:00 1,8 C 55 % 95 % 1021,0 hPa 0,0 l/m 0,0 km/h (0 Bft) N 0,00 h 0,0 UV-I 0 W/m 1,1 C 1,8 C 0,0 km/h (0 Bft)
20.10.2015 02:00 1,6 C 55 % 96 % 1021,0 hPa 0,0 l/m 0,0 km/h (0 Bft) N 0,00 h 0,0 UV-I 0 W/m 1,0 C 1,6 C 0,0 km/h (0 Bft)
20.10.2015 03:00 1,4 C 55 % 96 % 1021,0 hPa 0,0 l/m 0,0 km/h (0 Bft) N 0,00 h 0,0 UV-I 0 W/m 0,8 C 1,4 C 0,0 km/h (0 Bft)
20.10.2015 04:00 1,3 C 55 % 97 % 1021,0 hPa 0,0 l/m 0,0 km/h (0 Bft) N 0,00 h 0,0 UV-I 0 W/m 0,8 C 1,3 C 0,0 km/h (0 Bft)
20.10.2015 05:00 0,9 C 55 % 97 % 1021,0 hPa 0,0 l/m 0,0 km/h (0 Bft) SO 0,00 h 0,0 UV-I 0 W/m 0,4 C 0,9 C 0,3 km/h (0 Bft)
20.10.2015 06:00 0,8 C 55 % 97 % 1020,8 hPa 0,0 l/m 0,0 km/h (0 Bft) N 0,00 h 0,0 UV-I 0 W/m 0,4 C 0,8 C 0,0 km/h (0 Bft)
20.10.2015 07:00 1,0 C 55 % 97 % 1020,6 hPa 0,0 l/m 0,0 km/h (0 Bft) N 0,00 h 0,0 UV-I 0 W/m 0,6 C 1,0 C 0,0 km/h (0 Bft)
20.10.2015 08:00 1,4 C 55 % 97 % 1020,6 hPa 0,0 l/m 0,0 km/h (0 Bft) N 0,00 h 0,0 UV-I 22 W/m 1,1 C 1,4 C 0,0 km/h (0 Bft)
20.10.2015 09:00 2,2 C 55 % 98 % 1020,8 hPa 0,0 l/m 0,0 km/h (0 Bft) N 0,00 h 0,0 UV-I 56 W/m 1,9 C 2,2 C 0,0 km/h (0 Bft)
20.10.2015 10:00 3,1 C 55 % 98 % 1020,9 hPa 0,0 l/m 0,0 km/h (0 Bft) N 0,00 h 0,0 UV-I 48 W/m 2,8 C 3,1 C 0,0 km/h (0 Bft)
20.10.2015 11:00 4,0 C 53 % 98 % 1021,0 hPa 0,0 l/m 0,1 km/h (0 Bft) W 0,00 h 0,5 UV-I 50 W/m 3,7 C 4,0 C 0,2 km/h (0 Bft)
20.10.2015 12:00 4,8 C 51 % 98 % 1021,1 hPa 0,0 l/m 0,1 km/h (0 Bft) S-SW 0,00 h 0,0 UV-I 31 W/m 4,5 C 4,8 C 0,4 km/h (0 Bft)
20.10.2015 13:00 5,2 C 51 % 98 % 1020,9 hPa 0,0 l/m 0,1 km/h (0 Bft) S 0,00 h 0,5 UV-I 56 W/m 4,9 C 5,2 C 0,3 km/h (0 Bft)
20.10.2015 14:00 5,9 C 51 % 98 % 1020,6 hPa 0,0 l/m 0,2 km/h (0 Bft) S-SW 0,00 h 0,5 UV-I 71 W/m 5,7 C 5,9 C 0,3 km/h (0 Bft)
20.10.2015 15:00 6,5 C 51 % 97 % 1020,4 hPa 0,0 l/m 0,6 km/h (0 Bft) W-SW 0,00 h 0,5 UV-I 55 W/m 6,2 C 6,5 C 1,5 km/h (1 Bft)
20.10.2015 16:00 7,0 C 51 % 97 % 1020,5 hPa 0,0 l/m 0,2 km/h (0 Bft) W-NW 0,00 h 0,0 UV-I 30 W/m 6,5 C 7,0 C 0,8 km/h (0 Bft)
20.10.2015 17:00 7,2 C 52 % 95 % 1020,7 hPa 0,0 l/m 0,0 km/h (0 Bft) W 0,00 h 0,0 UV-I 10 W/m 6,5 C 7,2 C 0,4 km/h (0 Bft)
20.10.2015 18:00 7,2 C 53 % 95 % 1021,2 hPa 0,0 l/m 0,4 km/h (0 Bft) W 0,00 h 0,0 UV-I 0 W/m 6,4 C 7,2 C 1,7 km/h (1 Bft)
20.10.2015 19:00 6,9 C 54 % 95 % 1021,5 hPa 0,2 l/m 0,1 km/h (0 Bft) W 0,00 h 0,0 UV-I 0 W/m 6,2 C 6,9 C 0,7 km/h (0 Bft)
20.10.2015 20:00 6,8 C 54 % 96 % 1021,7 hPa 0,0 l/m 0,0 km/h (0 Bft) W 0,00 h 0,0 UV-I 0 W/m 6,2 C 6,8 C 0,1 km/h (0 Bft)
20.10.2015 21:00 6,8 C 54 % 96 % 1021,9 hPa 0,2 l/m 0,0 km/h (0 Bft) NW 0,00 h 0,0 UV-I 0 W/m 6,2 C 6,8 C 0,1 km/h (0 Bft)
20.10.2015 22:00 6,6 C 53 % 96 % 1022,0 hPa 0,0 l/m 0,1 km/h (0 Bft) W-NW 0,00 h 0,0 UV-I 0 W/m 6,0 C 6,6 C 0,3 km/h (0 Bft)
20.10.2015 23:00 6,4 C 54 % 96 % 1022,0 hPa 0,0 l/m 0,0 km/h (0 Bft) N 0,00 h 0,0 UV-I 0 W/m 5,8 C 6,4 C 0,2 km/h (0 Bft)
21.10.2015 00:00 6,4 C 54 % 97 % 1021,8 hPa 0,0 l/m 0,1 km/h (0 Bft) W 0,00 h 0,0 UV-I 0 W/m 6,0 C 6,4 C 0,2 km/h (0 Bft)
21.10.2015 01:00 6,5 C 54 % 97 % 1021,8 hPa 0,0 l/m 0,0 km/h (0 Bft) N 0,00 h 0,0 UV-I 0 W/m 6,0 C 6,5 C 0,2 km/h (0 Bft)
21.10.2015 02:00 6,6 C 54 % 97 % 1021,7 hPa 0,0 l/m 0,0 km/h (0 Bft) N 0,00 h 0,0 UV-I 0 W/m 6,1 C 6,6 C 0,2 km/h (0 Bft)
21.10.2015 03:00 6,6 C 54 % 97 % 1021,5 hPa 0,0 l/m 0,0 km/h (0 Bft) N 0,00 h 0,0 UV-I 0 W/m 6,1 C 6,6 C 0,2 km/h (0 Bft)
21.10.2015 04:00 6,6 C 53 % 97 % 1021,4 hPa 0,0 l/m 0,1 km/h (0 Bft) W 0,00 h 0,0 UV-I 0 W/m 6,2 C 6,6 C 0,4 km/h (0 Bft)
21.10.2015 05:00 6,6 C 54 % 97 % 1021,4 hPa 0,0 l/m 0,0 km/h (0 Bft) N 0,00 h 0,0 UV-I 0 W/m 6,1 C 6,6 C 0,0 km/h (0 Bft)
21.10.2015 06:00 6,1 C 53 % 96 % 1021,2 hPa 0,0 l/m 0,0 km/h (0 Bft) N 0,00 h 0,0 UV-I 0 W/m 5,5 C 6,1 C 0,0 km/h (0 Bft)
21.10.2015 07:00 5,5 C 53 % 96 % 1020,9 hPa 0,0 l/m 0,0 km/h (0 Bft) N 0,00 h 0,0 UV-I 6 W/m 4,9 C 5,5 C 0,0 km/h (0 Bft)
21.10.2015 08:00 5,6 C 54 % 97 % 1021,1 hPa 0,0 l/m 0,1 km/h (0 Bft) W-SW 0,00 h 0,0 UV-I 27 W/m 5,1 C 5,6 C 0,3 km/h (0 Bft)
21.10.2015 09:00 6,1 C 54 % 97 % 1021,4 hPa 0,0 l/m 0,7 km/h (0 Bft) W 0,00 h 0,5 UV-I 62 W/m 5,6 C 6,1 C 2,0 km/h (1 Bft)
21.10.2015 10:00 6,7 C 55 % 96 % 1021,4 hPa 0,0 l/m 0,7 km/h (0 Bft) W 0,13 h 0,6 UV-I 115 W/m 6,1 C 6,7 C 2,6 km/h (1 Bft)
21.10.2015 11:00 7,9 C 52 % 89 % 1021,1 hPa 0,0 l/m 2,2 km/h (1 Bft) SW 1,00 h 1,2 UV-I 236 W/m 6,2 C 7,9 C 6,0 km/h (2 Bft)
21.10.2015 12:00 9,1 C 51 % 83 % 1020,9 hPa 0,0 l/m 2,6 km/h (1 Bft) W-SW 0,92 h 1,3 UV-I 247 W/m 6,3 C 9,1 C 6,5 km/h (2 Bft)
21.10.2015 13:00 8,9 C 50 % 79 % 1020,7 hPa 0,0 l/m 4,8 km/h (1 Bft) W-SW 0,48 h 1,0 UV-I 152 W/m 5,5 C 8,7 C 9,6 km/h (2 Bft)
21.10.2015 14:00 8,7 C 49 % 79 % 1020,2 hPa 0,0 l/m 2,1 km/h (1 Bft) W 0,00 h 0,7 UV-I 112 W/m 5,2 C 8,7 C 5,5 km/h (1 Bft)
21.10.2015 15:00 8,5 C 46 % 79 % 1019,7 hPa 0,0 l/m 1,2 km/h (1 Bft) W 0,00 h 0,5 UV-I 54 W/m 5,1 C 8,5 C 3,8 km/h (1 Bft)
21.10.2015 16:00 8,2 C 48 % 81 % 1019,5 hPa 0,0 l/m 1,3 km/h (1 Bft) W-SW 0,00 h 0,0 UV-I 23 W/m 5,2 C 8,2 C 3,6 km/h (1 Bft)
21.10.2015 17:00 7,9 C 50 % 84 % 1019,5 hPa 0,0 l/m 0,2 km/h (0 Bft) W-SW 0,00 h 0,0 UV-I 9 W/m 5,3 C 7,9 C 0,5 km/h (0 Bft)
21.10.2015 18:00 7,6 C 52 % 86 % 1019,5 hPa 0,0 l/m 0,0 km/h (0 Bft) N 0,00 h 0,0 UV-I 0 W/m 5,4 C 7,6 C 0,0 km/h (0 Bft)
21.10.2015 19:00 7,3 C 52 % 88 % 1022,3 hPa 0,0 l/m 0,0 km/h (0 Bft) N 0,00 h 0,0 UV-I 0 W/m 5,4 C 7,3 C 0,0 km/h (0 Bft)
21.10.2015 20:00 6,9 C 52 % 89 % 1078,3 hPa 0,0 l/m 0,0 km/h (0 Bft) N 0,00 h 0,0 UV-I 0 W/m 5,3 C 6,9 C 0,0 km/h (0 Bft)
21.10.2015 21:00 6,7 C 53 % 91 % 1078,3 hPa 0,0 l/m 0,0 km/h (0 Bft) N 0,00 h 0,0 UV-I 0 W/m 5,3 C 6,7 C 0,0 km/h (0 Bft)
21.10.2015 22:00 6,7 C 53 % 92 % 1078,2 hPa 0,0 l/m 0,0 km/h (0 Bft) N 0,00 h 0,0 UV-I 0 W/m 5,4 C 6,7 C 0,0 km/h (0 Bft)
21.10.2015 23:00 6,5 C 53 % 92 % 1078,1 hPa 0,0 l/m 0,0 km/h (0 Bft) N 0,00 h 0,0 UV-I 0 W/m 5,4 C 6,5 C 0,0 km/h (0 Bft)
22.10.2015 00:00 6,4 C 53 % 93 % 1077,7 hPa 0,0 l/m 0,0 km/h (0 Bft) N 0,00 h 0,0 UV-I 0 W/m 5,4 C 6,4 C 0,0 km/h (0 Bft)
22.10.2015 01:00 6,3 C 53 % 94 % 1077,4 hPa 0,0 l/m 0,0 km/h (0 Bft) N 0,00 h 0,0 UV-I 0 W/m 5,4 C 6,3 C 0,0 km/h (0 Bft)
22.10.2015 02:00 6,3 C 53 % 94 % 1077,0 hPa 0,0 l/m 0,0 km/h (0 Bft) N 0,00 h 0,0 UV-I 0 W/m 5,4 C 6,3 C 0,0 km/h (0 Bft)
22.10.2015 03:00 6,2 C 53 % 95 % 1076,8 hPa 0,0 l/m 0,0 km/h (0 Bft) N 0,00 h 0,0 UV-I 0 W/m 5,4 C 6,2 C 0,0 km/h (0 Bft)
22.10.2015 04:00 5,7 C 54 % 94 % 1076,3 hPa 0,0 l/m 0,0 km/h (0 Bft) N 0,00 h 0,0 UV-I 0 W/m 4,9 C 5,7 C 0,6 km/h (0 Bft)
22.10.2015 05:00 5,0 C 54 % 95 % 1076,1 hPa 0,0 l/m 0,0 km/h (0 Bft) N 0,00 h 0,0 UV-I 0 W/m 4,2 C 5,0 C 0,5 km/h (0 Bft)
22.10.2015 06:00 4,7 C 54 % 95 % 1076,2 hPa 0,0 l/m 0,0 km/h (0 Bft) N 0,00 h 0,0 UV-I 0 W/m 4,0 C 4,7 C 1,8 km/h (1 Bft)
22.10.2015 07:00 4,7 C 53 % 96 % 1076,2 hPa 0,0 l/m 0,0 km/h (0 Bft) N 0,00 h 0,0 UV-I 8 W/m 4,1 C 4,7 C 2,6 km/h (1 Bft)
22.10.2015 08:00 5,1 C 54 % 97 % 1076,2 hPa 0,0 l/m 0,0 km/h (0 Bft) N 0,00 h 0,0 UV-I 34 W/m 4,6 C 5,1 C 3,0 km/h (1 Bft)
22.10.2015 09:00 5,8 C 54 % 97 % 1076,3 hPa 0,0 l/m 0,5 km/h (0 Bft) S 0,00 h 0,5 UV-I 73 W/m 5,3 C 5,8 C 5,2 km/h (1 Bft)
22.10.2015 10:00 6,9 C 54 % 94 % 1076,3 hPa 0,0 l/m 3,6 km/h (1 Bft) S-SW 0,60 h 0,8 UV-I 152 W/m 5,9 C 6,9 C 10,8 km/h (2 Bft)
22.10.2015 11:00 8,2 C 53 % 88 % 1076,3 hPa 0,0 l/m 4,6 km/h (1 Bft) S-SW 0,85 h 1,4 UV-I 306 W/m 6,4 C 8,2 C 11,6 km/h (2 Bft)
22.10.2015 12:00 9,2 C 49 % 82 % 1076,2 hPa 0,0 l/m 4,0 km/h (1 Bft) W-SW 0,47 h 1,0 UV-I 199 W/m 6,3 C 9,1 C 12,1 km/h (2 Bft)
22.10.2015 13:00 9,5 C 48 % 80 % 1075,7 hPa 0,0 l/m 4,0 km/h (1 Bft) W-SW 0,20 h 0,9 UV-I 120 W/m 6,3 C 9,5 C 13,9 km/h (3 Bft)
22.10.2015 14:00 10,1 C 50 % 79 % 1075,4 hPa 0,0 l/m 3,5 km/h (1 Bft) W-SW 0,32 h 1,0 UV-I 149 W/m 6,6 C 10,1 C 11,7 km/h (2 Bft)
22.10.2015 15:00 9,9 C 51 % 79 % 1075,3 hPa 0,0 l/m 3,1 km/h (1 Bft) W-SW 0,00 h 0,5 UV-I 60 W/m 6,4 C 9,9 C 13,1 km/h (3 Bft)
22.10.2015 16:00 9,7 C 51 % 79 % 1075,3 hPa 0,0 l/m 4,2 km/h (1 Bft) W-SW 0,00 h 0,0 UV-I 32 W/m 6,2 C 9,7 C 15,7 km/h (3 Bft)
22.10.2015 17:00 9,4 C 52 % 81 % 1075,7 hPa 0,0 l/m 2,8 km/h (1 Bft) W-SW 0,00 h 0,0 UV-I 9 W/m 6,3 C 9,4 C 11,3 km/h (2 Bft)
22.10.2015 18:00 8,8 C 53 % 86 % 1076,4 hPa 0,0 l/m 2,8 km/h (1 Bft) W 0,00 h 0,0 UV-I 0 W/m 6,6 C 8,8 C 11,6 km/h (2 Bft)
22.10.2015 19:00 8,3 C 53 % 90 % 1076,8 hPa 0,0 l/m 2,2 km/h (1 Bft) W-SW 0,00 h 0,0 UV-I 0 W/m 6,8 C 8,3 C 11,1 km/h (2 Bft)
22.10.2015 20:00 8,2 C 53 % 92 % 1077,2 hPa 0,0 l/m 2,7 km/h (1 Bft) W-SW 0,00 h 0,0 UV-I 0 W/m 6,9 C 8,2 C 12,1 km/h (2 Bft)
22.10.2015 21:00 8,2 C 53 % 92 % 1077,4 hPa 0,0 l/m 2,2 km/h (1 Bft) W-SW 0,00 h 0,0 UV-I 0 W/m 7,0 C 8,2 C 11,2 km/h (2 Bft)
22.10.2015 22:00 8,2 C 53 % 94 % 1078,0 hPa 0,0 l/m 2,3 km/h (1 Bft) W-SW 0,00 h 0,0 UV-I 0 W/m 7,2 C 8,2 C 11,5 km/h (2 Bft)
22.10.2015 23:00 8,3 C 54 % 94 % 1078,4 hPa 0,0 l/m 2,1 km/h (1 Bft) W-SW 0,00 h 0,0 UV-I 0 W/m 7,3 C 8,3 C 11,5 km/h (2 Bft)
23.10.2015 00:00 8,3 C 54 % 94 % 1078,5 hPa 0,0 l/m 2,2 km/h (1 Bft) W-SW 0,00 h 0,0 UV-I 0 W/m 7,4 C 8,3 C 10,4 km/h (2 Bft)
23.10.2015 01:00 8,4 C 54 % 94 % 1078,8 hPa 0,0 l/m 2,3 km/h (1 Bft) W-SW 0,00 h 0,0 UV-I 0 W/m 7,5 C 8,4 C 12,2 km/h (2 Bft)
23.10.2015 02:00 8,4 C 54 % 94 % 1079,1 hPa 0,0 l/m 1,9 km/h (1 Bft) W-SW 0,00 h 0,0 UV-I 0 W/m 7,5 C 8,4 C 10,8 km/h (2 Bft)
23.10.2015 03:00 8,6 C 54 % 94 % 1079,7 hPa 0,0 l/m 1,5 km/h (1 Bft) W-SW 0,00 h 0,0 UV-I 0 W/m 7,7 C 8,6 C 7,6 km/h (2 Bft)
23.10.2015 04:00 8,6 C 54 % 95 % 1080,0 hPa 0,0 l/m 0,2 km/h (0 Bft) W-SW 0,00 h 0,0 UV-I 0 W/m 7,8 C 8,6 C 1,2 km/h (1 Bft)
23.10.2015 05:00 8,5 C 55 % 95 % 1080,6 hPa 0,0 l/m 1,4 km/h (1 Bft) NW 0,00 h 0,0 UV-I 0 W/m 7,7 C 8,5 C 9,0 km/h (2 Bft)
23.10.2015 06:00 8,1 C 55 % 93 % 1081,2 hPa 0,0 l/m 0,2 km/h (0 Bft) N 0,00 h 0,0 UV-I 0 W/m 7,1 C 8,1 C 0,9 km/h (0 Bft)
23.10.2015 07:00 7,9 C 55 % 93 % 1081,8 hPa 0,0 l/m 0,0 km/h (0 Bft) N 0,00 h 0,0 UV-I 7 W/m 6,8 C 7,9 C 0,0 km/h (0 Bft)
23.10.2015 08:00 7,8 C 55 % 93 % 1082,2 hPa 0,0 l/m 0,1 km/h (0 Bft) W-NW 0,00 h 0,0 UV-I 47 W/m 6,7 C 7,8 C 1,9 km/h (1 Bft)
23.10.2015 09:00 9,4 C 55 % 85 % 1082,6 hPa 0,0 l/m 2,2 km/h (1 Bft) NW 0,78 h 0,7 UV-I 214 W/m 7,0 C 9,4 C 8,9 km/h (2 Bft)
23.10.2015 10:00 10,9 C 50 % 75 % 1083,2 hPa 0,0 l/m 4,3 km/h (1 Bft) N-NW 1,00 h 1,1 UV-I 350 W/m 6,7 C 10,9 C 15,0 km/h (3 Bft)
23.10.2015 11:00 12,0 C 50 % 68 % 1083,5 hPa 0,0 l/m 4,8 km/h (1 Bft) N-NW 1,00 h 1,6 UV-I 418 W/m 6,3 C 11,9 C 14,4 km/h (3 Bft)
23.10.2015 12:00 12,4 C 49 % 67 % 1083,4 hPa 0,0 l/m 6,5 km/h (2 Bft) NW 0,98 h 1,8 UV-I 404 W/m 6,4 C 11,8 C 15,6 km/h (3 Bft)
23.10.2015 13:00 13,0 C 49 % 64 % 1083,1 hPa 0,0 l/m 4,6 km/h (1 Bft) NW 0,92 h 1,9 UV-I 402 W/m 6,4 C 13,0 C 12,4 km/h (3 Bft)
23.10.2015 14:00 12,6 C 50 % 66 % 1083,1 hPa 0,0 l/m 4,1 km/h (1 Bft) W-NW 0,82 h 1,3 UV-I 235 W/m 6,4 C 12,6 C 13,2 km/h (3 Bft)
23.10.2015 15:00 11,8 C 51 % 69 % 1083,2 hPa 0,0 l/m 5,3 km/h (1 Bft) W 0,53 h 0,8 UV-I 165 W/m 6,4 C 11,8 C 14,3 km/h (3 Bft)
23.10.2015 16:00 11,1 C 51 % 72 % 1083,2 hPa 0,0 l/m 2,8 km/h (1 Bft) NW 0,00 h 0,5 UV-I 72 W/m 6,2 C 11,1 C 11,3 km/h (2 Bft)
23.10.2015 17:00 10,7 C 51 % 73 % 1083,4 hPa 0,0 l/m 1,0 km/h (0 Bft) NW 0,00 h 0,0 UV-I 21 W/m 6,1 C 10,7 C 6,1 km/h (2 Bft)
23.10.2015 18:00 10,1 C 52 % 75 % 1083,4 hPa 0,0 l/m 0,0 km/h (0 Bft) N 0,00 h 0,0 UV-I 0 W/m 5,9 C 10,1 C 0,7 km/h (0 Bft)
23.10.2015 19:00 9,4 C 53 % 78 % 1083,5 hPa 0,0 l/m 0,0 km/h (0 Bft) N 0,00 h 0,0 UV-I 0 W/m 5,8 C 9,4 C 0,0 km/h (0 Bft)
23.10.2015 20:00 8,2 C 53 % 82 % 1083,3 hPa 0,0 l/m 0,0 km/h (0 Bft) N 0,00 h 0,0 UV-I 0 W/m 5,3 C 8,2 C 0,0 km/h (0 Bft)
23.10.2015 21:00 6,3 C 55 % 87 % 1083,2 hPa 0,0 l/m 0,0 km/h (0 Bft) N 0,00 h 0,0 UV-I 0 W/m 4,3 C 6,3 C 0,0 km/h (0 Bft)
23.10.2015 22:00 4,9 C 55 % 89 % 1083,3 hPa 0,0 l/m 0,0 km/h (0 Bft) N 0,00 h 0,0 UV-I 0 W/m 3,2 C 4,9 C 0,0 km/h (0 Bft)
23.10.2015 23:00 3,9 C 55 % 91 % 1083,2 hPa 0,0 l/m 0,0 km/h (0 Bft) N 0,00 h 0,0 UV-I 0 W/m 2,5 C 3,9 C 0,0 km/h (0 Bft)
24.10.2015 00:00 3,0 C 55 % 91 % 1083,2 hPa 0,0 l/m 0,0 km/h (0 Bft) N 0,00 h 0,0 UV-I 0 W/m 1,7 C 3,0 C 0,0 km/h (0 Bft)
24.10.2015 01:00 2,1 C 55 % 92 % 1083,2 hPa 0,0 l/m 0,0 km/h (0 Bft) N 0,00 h 0,0 UV-I 0 W/m 0,9 C 2,1 C 0,0 km/h (0 Bft)
24.10.2015 02:00 1,4 C 55 % 92 % 1083,1 hPa 0,0 l/m 0,0 km/h (0 Bft) N 0,00 h 0,0 UV-I 0 W/m 0,2 C 1,4 C 0,0 km/h (0 Bft)
24.10.2015 03:00 0,7 C 55 % 93 % 1082,6 hPa 0,0 l/m 0,0 km/h (0 Bft) N 0,00 h 0,0 UV-I 0 W/m -0,3 C 0,7 C 0,0 km/h (0 Bft)
24.10.2015 04:00 0,2 C 55 % 93 % 1082,1 hPa 0,0 l/m 0,0 km/h (0 Bft) N 0,00 h 0,0 UV-I 0 W/m -0,7 C 0,2 C 0,0 km/h (0 Bft)
24.10.2015 05:00 -0,1 C 54 % 93 % 1081,4 hPa 0,0 l/m 0,0 km/h (0 Bft) N 0,00 h 0,0 UV-I 0 W/m -1,0 C -0,1 C 0,0 km/h (0 Bft)
24.10.2015 06:00 -0,5 C 54 % 94 % 1081,2 hPa 0,0 l/m 0,0 km/h (0 Bft) N 0,00 h 0,0 UV-I 0 W/m -1,3 C -0,5 C 0,0 km/h (0 Bft)
24.10.2015 07:00 -0,7 C 55 % 94 % 1081,4 hPa 0,0 l/m 0,0 km/h (0 Bft) N 0,00 h 0,0 UV-I 7 W/m -1,5 C -0,7 C 0,0 km/h (0 Bft)
24.10.2015 08:00 -0,6 C 54 % 95 % 1081,7 hPa 0,0 l/m 0,0 km/h (0 Bft) N 0,00 h 0,0 UV-I 34 W/m -1,3 C -0,6 C 0,2 km/h (0 Bft)
24.10.2015 09:00 2,5 C 54 % 94 % 1081,8 hPa 0,0 l/m 0,4 km/h (0 Bft) NO 0,83 h 0,6 UV-I 180 W/m 1,7 C 2,5 C 2,5 km/h (1 Bft)
24.10.2015 10:00 7,4 C 50 % 87 % 1081,4 hPa 0,0 l/m 0,0 km/h (0 Bft) N 1,00 h 1,1 UV-I 329 W/m 5,3 C 7,4 C 0,0 km/h (0 Bft)
24.10.2015 11:00 10,7 C 51 % 81 % 1080,6 hPa 0,0 l/m 0,0 km/h (0 Bft) N 1,00 h 1,7 UV-I 394 W/m 7,5 C 10,7 C 1,2 km/h (1 Bft)
24.10.2015 12:00 11,9 C 50 % 76 % 1080,0 hPa 0,0 l/m 0,0 km/h (0 Bft) N 1,00 h 2,0 UV-I 439 W/m 7,8 C 11,9 C 3,2 km/h (1 Bft)
24.10.2015 13:00 13,0 C 51 % 72 % 1079,4 hPa 0,0 l/m 0,1 km/h (0 Bft) SW 1,00 h 2,0 UV-I 454 W/m 8,1 C 13,0 C 4,7 km/h (1 Bft)
24.10.2015 14:00 12,4 C 51 % 74 % 1078,9 hPa 0,0 l/m 2,4 km/h (1 Bft) S-SW 1,00 h 1,5 UV-I 357 W/m 7,9 C 12,4 C 9,3 km/h (2 Bft)
24.10.2015 15:00 11,8 C 48 % 76 % 1078,5 hPa 0,0 l/m 2,8 km/h (1 Bft) S-SW 1,00 h 1,0 UV-I 293 W/m 7,6 C 11,8 C 10,0 km/h (2 Bft)
24.10.2015 16:00 10,4 C 46 % 80 % 1078,5 hPa 0,0 l/m 3,1 km/h (1 Bft) S-SW 0,53 h 0,6 UV-I 145 W/m 7,2 C 10,4 C 10,3 km/h (2 Bft)
24.10.2015 17:00 8,7 C 49 % 86 % 1078,5 hPa 0,0 l/m 1,2 km/h (1 Bft) S-SW 0,00 h 0,0 UV-I 20 W/m 6,5 C 8,7 C 7,5 km/h (2 Bft)
24.10.2015 18:00 7,7 C 50 % 90 % 1079,0 hPa 0,0 l/m 2,0 km/h (1 Bft) S-SW 0,00 h 0,0 UV-I 0 W/m 6,1 C 7,7 C 9,3 km/h (2 Bft)
24.10.2015 19:00 7,5 C 50 % 91 % 1079,2 hPa 0,0 l/m 0,5 km/h (0 Bft) S 0,00 h 0,0 UV-I 0 W/m 6,1 C 7,5 C 4,2 km/h (1 Bft)
24.10.2015 20:00 7,2 C 52 % 92 % 1079,2 hPa 0,0 l/m 1,1 km/h (1 Bft) S-SW 0,00 h 0,0 UV-I 0 W/m 6,0 C 7,2 C 7,3 km/h (2 Bft)
24.10.2015 21:00 7,0 C 53 % 93 % 1079,2 hPa 0,0 l/m 0,0 km/h (0 Bft) N 0,00 h 0,0 UV-I 0 W/m 6,1 C 7,0 C 0,2 km/h (0 Bft)
24.10.2015 22:00 7,1 C 53 % 94 % 1079,2 hPa 0,0 l/m 0,0 km/h (0 Bft) N 0,00 h 0,0 UV-I 0 W/m 6,2 C 7,1 C 0,1 km/h (0 Bft)
24.10.2015 23:00 7,2 C 53 % 95 % 1079,1 hPa 0,0 l/m 0,3 km/h (0 Bft) W-SW 0,00 h 0,0 UV-I 0 W/m 6,4 C 7,2 C 2,7 km/h (1 Bft)
25.10.2015 00:00 7,2 C 53 % 95 % 1079,2 hPa 0,0 l/m 0,3 km/h (0 Bft) W-SW 0,00 h 0,0 UV-I 0 W/m 6,5 C 7,2 C 4,6 km/h (1 Bft)
25.10.2015 01:00 6,9 C 53 % 95 % 1079,8 hPa 0,0 l/m 0,0 km/h (0 Bft) N 0,00 h 0,0 UV-I 0 W/m 6,2 C 6,9 C 0,1 km/h (0 Bft)
25.10.2015 02:00 5,2 C 53 % 94 % 1079,8 hPa 0,0 l/m 0,0 km/h (0 Bft) N 0,00 h 0,0 UV-I 0 W/m 4,4 C 5,2 C 0,3 km/h (0 Bft)
25.10.2015 03:00 4,7 C 53 % 96 % 1079,9 hPa 0,0 l/m 0,0 km/h (0 Bft) N 0,00 h 0,0 UV-I 0 W/m 4,1 C 4,7 C 0,0 km/h (0 Bft)
25.10.2015 04:00 4,3 C 53 % 95 % 1080,2 hPa 0,0 l/m 0,0 km/h (0 Bft) N 0,00 h 0,0 UV-I 0 W/m 3,6 C 4,3 C 0,0 km/h (0 Bft)
25.10.2015 05:00 3,7 C 53 % 95 % 1080,6 hPa 0,0 l/m 0,0 km/h (0 Bft) N 0,00 h 0,0 UV-I 0 W/m 3,0 C 3,7 C 0,0 km/h (0 Bft)
25.10.2015 06:00 3,5 C 53 % 96 % 1080,9 hPa 0,0 l/m 0,0 km/h (0 Bft) N 0,00 h 0,0 UV-I 0 W/m 2,9 C 3,5 C 0,0 km/h (0 Bft)
25.10.2015 07:00 4,5 C 55 % 97 % 1081,5 hPa 0,0 l/m 0,0 km/h (0 Bft) N 0,00 h 0,0 UV-I 17 W/m 4,1 C 4,5 C 0,0 km/h (0 Bft)
25.10.2015 08:00 5,8 C 55 % 97 % 1082,2 hPa 0,0 l/m 0,0 km/h (0 Bft) N 0,00 h 0,0 UV-I 27 W/m 5,4 C 5,8 C 0,3 km/h (0 Bft)
25.10.2015 09:00 7,0 C 55 % 97 % 1082,6 hPa 0,0 l/m 0,0 km/h (0 Bft) N 0,00 h 0,0 UV-I 54 W/m 6,6 C 7,0 C 0,6 km/h (0 Bft)
25.10.2015 10:00 8,4 C 55 % 96 % 1082,7 hPa 0,0 l/m 0,8 km/h (0 Bft) SW 0,42 h 1,0 UV-I 124 W/m 7,7 C 8,4 C 4,9 km/h (1 Bft)
25.10.2015 11:00 10,1 C 52 % 90 % 1083,1 hPa 0,0 l/m 3,1 km/h (1 Bft) SW 0,92 h 1,3 UV-I 209 W/m 8,5 C 10,1 C 9,9 km/h (2 Bft)
25.10.2015 12:00 11,0 C 53 % 88 % 1083,2 hPa 0,0 l/m 3,7 km/h (1 Bft) W-SW 1,00 h 1,4 UV-I 236 W/m 9,0 C 11,0 C 11,3 km/h (2 Bft)
25.10.2015 13:00 11,7 C 51 % 86 % 1083,3 hPa 0,0 l/m 3,0 km/h (1 Bft) W-SW 0,80 h 1,0 UV-I 198 W/m 9,4 C 11,7 C 10,9 km/h (2 Bft)
25.10.2015 14:00 11,9 C 52 % 84 % 1083,6 hPa 0,0 l/m 2,4 km/h (1 Bft) W 0,10 h 0,7 UV-I 113 W/m 9,3 C 11,9 C 9,5 km/h (2 Bft)
25.10.2015 15:00 11,4 C 55 % 86 % 1083,9 hPa 0,0 l/m 0,6 km/h (0 Bft) W 0,00 h 0,0 UV-I 48 W/m 9,2 C 11,4 C 5,0 km/h (1 Bft)
25.10.2015 16:00 11,3 C 55 % 86 % 1084,3 hPa 0,0 l/m 0,0 km/h (0 Bft) N 0,00 h 0,0 UV-I 13 W/m 9,1 C 11,3 C 0,5 km/h (0 Bft)
25.10.2015 17:00 11,0 C 54 % 85 % 1084,9 hPa 0,0 l/m 0,0 km/h (0 Bft) N 0,00 h 0,0 UV-I 0 W/m 8,6 C 11,0 C 0,0 km/h (0 Bft)
25.10.2015 18:00 10,5 C 54 % 86 % 1085,3 hPa 0,0 l/m 0,0 km/h (0 Bft) N 0,00 h 0,0 UV-I 0 W/m 8,3 C 10,5 C 0,0 km/h (0 Bft)
25.10.2015 19:00 9,3 C 54 % 88 % 1085,5 hPa 0,0 l/m 0,0 km/h (0 Bft) N 0,00 h 0,0 UV-I 0 W/m 7,4 C 9,3 C 0,0 km/h (0 Bft)
25.10.2015 20:00 7,8 C 55 % 91 % 1085,8 hPa 0,0 l/m 0,0 km/h (0 Bft) N 0,00 h 0,0 UV-I 0 W/m 6,4 C 7,8 C 0,0 km/h (0 Bft)
25.10.2015 21:00 7,1 C 54 % 92 % 1086,1 hPa 0,0 l/m 0,0 km/h (0 Bft) N 0,00 h 0,0 UV-I 0 W/m 5,9 C 7,1 C 0,0 km/h (0 Bft)
25.10.2015 22:00 6,8 C 55 % 94 % 1086,0 hPa 0,0 l/m 0,0 km/h (0 Bft) N 0,00 h 0,0 UV-I 0 W/m 5,9 C 6,8 C 0,0 km/h (0 Bft)
25.10.2015 23:00 6,7 C 56 % 94 % 1085,5 hPa 0,0 l/m 0,0 km/h (0 Bft) N 0,00 h 0,0 UV-I 0 W/m 5,8 C 6,7 C 0,0 km/h (0 Bft)
Min-Datum _ 24.10.15 21.10.15 23.10.15 21.10.15 - 20.10.15 - - - - 24.10.15 24.10.15 20.10.15
_ Min-Zeit 08:04 15:02 13:29 19:30 - 01:02 - - - - 08:13 08:04 01:02
Minimum _ -0,8 C 42 % 61 % 1019,3 hPa - 0,0 km/h (0 Bft) - - - - -1,6 C -0,8 C 0,0 km/h (0 Bft)
Max-Datum _ 23.10.15 23.10.15 20.10.15 25.10.15 20.10.15 21.10.15 - 24.10.15 23.10.15 23.10.15 25.10.15 23.10.15 22.10.15
_ Max-Zeit 14:28 07:43 08:27 21:48 19:00 13:09 - 10:20 12:43 12:43 13:24 14:28 17:49
Maximum _ 13,9 C 56 % 98 % 1086,3 hPa 0,2 l/m 11,3 km/h
W-SW (2 Bft)
- 0,07 h 2,2 UV-I 624 W/m 9,8 C 13,9 C 21,0 km/h
W-SW (4 Bft)
Durchschnitt _ 6,9 C 53 % 90 % 1062,6 hPa #0,4 l/m 0,9 km/h (0 Bft) W-SW #21:36 h 1,0 UV-I 135 W/m 5,3 C 6,9 C 3,7 km/h (1 Bft)